Time;durP1;ratioP1;P1;durP2;ratioP2;P2;SDS_P1;SDS_P2;PMS_P1;PMS_P2;Temp;Humidity;BMP_temperature;BMP_pressure;BME280_temperature;BME280_humidity;BME280_pressure;Samples;Min_cycle;Max_cycle;Signal;HPM_P1;HPM_P2
2022/02/25 00:01:42;;;;;;;16.85;12.60;;;;;;;8.50;54.66;102092.02;1750891;80;21062;-52
2022/02/25 00:04:10;;;;;;;15.48;12.78;;;;;;;8.50;54.77;102091.14;1760829;80;21073;-52
2022/02/25 00:06:36;;;;;;;15.95;12.30;;;;;;;8.49;54.92;102088.13;1745581;80;21008;-53
2022/02/25 00:09:05;;;;;;;13.75;12.33;;;;;;;8.52;54.97;102088.13;1751606;80;21847;-53
2022/02/25 00:11:32;;;;;;;16.65;13.13;;;;;;;8.50;54.93;102084.66;1764009;80;20994;-52
2022/02/25 00:13:58;;;;;;;16.93;12.78;;;;;;;8.52;54.99;102085.53;1762128;80;21041;-52
2022/02/25 00:16:26;;;;;;;18.27;12.78;;;;;;;8.55;54.93;102082.98;1765796;80;21548;-53
2022/02/25 00:18:54;;;;;;;15.10;12.55;;;;;;;8.56;54.99;102079.52;1751493;80;21528;-54
2022/02/25 00:25:46;;;;;;;15.23;12.07;;;;;;;8.57;54.96;102081.27;1655641;85;21040;-54
2022/02/25 00:28:15;;;;;;;16.42;12.78;;;;;;;8.58;54.94;102068.30;1655620;85;21672;-53
2022/02/25 00:30:43;;;;;;;15.05;12.50;;;;;;;8.60;54.90;102060.52;1657528;85;21604;-54
2022/02/25 00:33:13;;;;;;;15.23;12.40;;;;;;;8.58;54.94;102060.94;1655497;85;21531;-54
2022/02/25 00:35:41;;;;;;;15.30;12.30;;;;;;;8.57;55.00;102057.92;1653192;85;21249;-54
2022/02/25 00:38:09;;;;;;;16.02;12.73;;;;;;;8.56;54.98;102057.46;1662563;85;21019;-53
2022/02/25 00:40:37;;;;;;;14.58;12.25;;;;;;;8.53;54.78;102058.75;1668361;85;21009;-53
2022/02/25 00:43:05;;;;;;;15.10;12.58;;;;;;;8.49;54.99;102049.21;1669359;85;21058;-52
2022/02/25 00:45:33;;;;;;;16.95;13.28;;;;;;;8.45;54.90;102042.27;1668158;85;21079;-53
2022/02/25 00:48:02;;;;;;;14.75;12.05;;;;;;;8.44;55.00;102045.70;1663760;85;21044;-55
2022/02/25 00:50:30;;;;;;;13.62;11.10;;;;;;;8.44;55.12;102040.52;1689177;82;21621;-54
2022/02/25 00:52:58;;;;;;;16.32;13.15;;;;;;;8.46;55.12;102034.91;1710743;82;21080;-53
2022/02/25 00:55:25;;;;;;;15.60;12.98;;;;;;;8.45;54.73;102025.41;1715522;82;21034;-53
2022/02/25 00:57:53;;;;;;;14.68;12.68;;;;;;;8.46;54.83;102018.05;1709708;82;21104;-52
2022/02/25 01:00:20;;;;;;;14.43;11.93;;;;;;;8.50;54.82;102010.72;1713647;82;21044;-53
2022/02/25 01:02:47;;;;;;;15.72;12.13;;;;;;;8.52;54.66;102009.02;1713423;82;21069;-53
2022/02/25 01:05:15;;;;;;;14.40;12.65;;;;;;;8.53;54.57;102003.83;1720791;82;21215;-53
2022/02/25 01:07:43;;;;;;;16.87;12.82;;;;;;;8.53;54.12;101996.49;1723237;81;21033;-54
2022/02/25 01:10:11;;;;;;;14.20;12.47;;;;;;;8.53;54.00;101996.49;1714807;82;21089;-53
2022/02/25 01:12:38;;;;;;;15.45;12.07;;;;;;;8.52;53.74;101997.34;1712236;82;21091;-53
2022/02/25 01:15:06;;;;;;;14.93;11.73;;;;;;;8.52;53.90;101999.93;1729266;81;21483;-52
2022/02/25 01:17:33;;;;;;;15.45;11.43;;;;;;;8.52;53.82;101994.74;1712382;83;21098;-53
2022/02/25 01:20:01;;;;;;;16.10;12.75;;;;;;;8.52;53.41;101989.55;1697566;83;21062;-53
2022/02/25 01:22:27;;;;;;;16.23;12.13;;;;;;;8.50;53.45;101986.95;1773216;80;20998;-52
2022/02/25 01:24:55;;;;;;;15.30;12.33;;;;;;;8.48;53.59;101987.80;1760312;80;20994;-53
2022/02/25 01:27:22;;;;;;;13.38;11.60;;;;;;;8.47;53.64;101987.38;1756704;80;20998;-54
2022/02/25 01:29:49;;;;;;;14.75;11.88;;;;;;;8.47;53.71;101983.48;1756392;80;21060;-52
2022/02/25 01:32:15;;;;;;;13.08;11.43;;;;;;;8.48;53.83;101982.61;1753906;80;21015;-52
2022/02/25 01:34:42;;;;;;;13.62;11.15;;;;;;;8.47;53.87;101971.81;1774863;80;21124;-52
2022/02/25 01:37:08;;;;;;;17.37;12.30;;;;;;;8.46;53.39;101966.17;1756434;81;21022;-53
2022/02/25 01:39:35;;;;;;;14.75;11.90;;;;;;;8.42;53.19;101961.41;1753519;80;21081;-53
2022/02/25 01:42:04;;;;;;;15.80;12.18;;;;;;;8.39;53.40;101954.05;1764280;80;21594;-52
2022/02/25 01:44:31;;;;;;;15.83;12.20;;;;;;;8.36;53.48;101954.88;1753593;79;21485;-52
2022/02/25 01:47:03;;;;;;;16.40;12.23;;;;;;;8.33;53.57;101953.97;1761594;80;20998;-53
2022/02/25 01:49:30;;;;;;;15.35;12.20;;;;;;;8.32;53.55;101958.73;1754899;80;21483;-53
2022/02/25 01:52:00;;;;;;;15.93;11.53;;;;;;;8.28;53.73;101952.67;1754078;80;21501;-52
2022/02/25 01:54:27;;;;;;;15.03;12.30;;;;;;;8.28;53.72;101947.91;1771580;80;20959;-52
2022/02/25 01:56:55;;;;;;;17.60;12.47;;;;;;;8.26;53.76;101949.63;1767019;80;21057;-52
2022/02/25 01:59:22;;;;;;;14.87;12.50;;;;;;;8.24;53.93;101949.59;1757112;80;21019;-52
2022/02/25 02:01:48;;;;;;;15.13;12.43;;;;;;;8.26;53.97;101947.03;1748783;81;21101;-52
2022/02/25 02:04:15;;;;;;;15.40;11.75;;;;;;;8.27;53.85;101946.16;1752457;80;21064;-52
2022/02/25 02:06:41;;;;;;;15.25;11.95;;;;;;;8.26;53.75;101947.91;1755563;81;21048;-52
2022/02/25 02:09:09;;;;;;;16.57;12.95;;;;;;;8.24;53.74;101944.41;1762391;80;20995;-52
2022/02/25 02:11:38;;;;;;;13.43;11.12;;;;;;;8.22;53.95;101944.83;1751010;80;21077;-53
2022/02/25 02:14:07;;;;;;;15.65;12.47;;;;;;;8.20;53.87;101942.20;1755888;80;21042;-52
2022/02/25 02:16:35;;;;;;;14.87;11.63;;;;;;;8.19;53.85;101940.48;1758063;81;20971;-52
2022/02/25 02:19:01;;;;;;;15.58;11.73;;;;;;;8.18;53.86;101941.77;1752244;80;21072;-53
2022/02/25 02:21:29;;;;;;;15.25;12.55;;;;;;;8.17;53.90;101940.02;1752165;81;21522;-53
2022/02/25 02:23:58;;;;;;;16.17;11.83;;;;;;;8.15;54.01;101937.42;1760491;80;21035;-52
2022/02/25 02:26:27;;;;;;;14.20;11.45;;;;;;;8.15;53.97;101927.48;1765169;80;21022;-53
2022/02/25 02:28:54;;;;;;;13.95;11.80;;;;;;;8.12;53.99;101932.63;1724189;82;21509;-52
2022/02/25 02:31:20;;;;;;;13.65;11.38;;;;;;;8.10;54.04;101927.86;1758777;80;21105;-52
2022/02/25 02:33:47;;;;;;;15.08;11.73;;;;;;;8.08;54.10;101935.63;1750399;80;21050;-52
2022/02/25 02:36:14;;;;;;;16.00;11.95;;;;;;;8.09;54.13;101936.09;1770481;80;21039;-53
2022/02/25 02:38:41;;;;;;;13.62;11.35;;;;;;;8.07;53.81;101935.63;1762515;80;21029;-52
2022/02/25 02:41:08;;;;;;;14.75;11.33;;;;;;;8.05;53.58;101936.93;1767202;80;21061;-52
2022/02/25 02:43:35;;;;;;;14.60;11.73;;;;;;;8.05;53.58;101943.41;1757958;80;21069;-53
2022/02/25 02:46:03;;;;;;;13.72;11.15;;;;;;;8.05;53.31;101943.41;1748332;80;20974;-53
2022/02/25 02:48:30;;;;;;;13.68;11.73;;;;;;;8.04;53.35;101942.95;1759438;80;21003;-52
2022/02/25 02:50:57;;;;;;;13.98;10.65;;;;;;;8.04;53.36;101940.36;1753792;80;21026;-52
2022/02/25 02:53:23;;;;;;;16.32;11.63;;;;;;;8.05;53.36;101937.34;1762317;80;20994;-52
2022/02/25 02:55:51;;;;;;;12.68;11.10;;;;;;;8.04;53.31;101939.06;1753367;80;21089;-52
2022/02/25 02:58:18;;;;;;;14.83;11.88;;;;;;;8.05;53.42;101939.52;1762856;80;21084;-54
2022/02/25 03:00:46;;;;;;;14.47;11.70;;;;;;;8.06;53.50;101947.72;1763467;80;21045;-52
2022/02/25 03:03:14;;;;;;;14.33;11.40;;;;;;;8.07;53.14;101944.70;1756079;81;21129;-52
2022/02/25 03:05:41;;;;;;;15.43;11.48;;;;;;;8.06;53.05;101947.72;1759311;80;21059;-52
2022/02/25 03:08:08;;;;;;;12.15;10.35;;;;;;;8.05;53.03;101942.11;1754031;80;21029;-53
2022/02/25 03:10:35;;;;;;;15.38;11.38;;;;;;;8.07;52.94;101943.41;1757392;80;21033;-52
2022/02/25 03:13:04;;;;;;;13.72;10.35;;;;;;;8.05;52.80;101934.34;1755678;80;21615;-54
2022/02/25 03:15:32;;;;;;;13.35;10.65;;;;;;;8.05;52.60;101940.81;1757399;80;21014;-52
2022/02/25 03:17:59;;;;;;;15.93;11.57;;;;;;;8.05;52.34;101939.52;1755873;80;21051;-52
2022/02/25 03:20:26;;;;;;;14.25;10.88;;;;;;;8.03;52.37;101936.47;1745615;80;21006;-52
2022/02/25 03:22:55;;;;;;;12.85;10.08;;;;;;;8.03;52.46;101939.94;1753634;80;20998;-52
2022/02/25 03:25:22;;;;;;;15.78;11.05;;;;;;;8.05;52.45;101932.16;1766629;80;21012;-53
2022/02/25 03:27:48;;;;;;;11.63;10.10;;;;;;;8.06;52.56;101930.87;1769184;80;21132;-52
2022/02/25 03:30:15;;;;;;;15.08;9.70;;;;;;;8.06;52.38;101934.75;1754633;80;20990;-52
2022/02/25 03:32:43;;;;;;;16.20;10.43;;;;;;;8.09;52.42;101932.63;1758758;81;21395;-52
2022/02/25 03:35:11;;;;;;;13.58;10.63;;;;;;;8.10;52.25;101926.14;1757944;80;21506;-53
2022/02/25 03:37:38;;;;;;;14.63;11.53;;;;;;;8.11;52.11;101930.48;1766833;80;21014;-52
2022/02/25 03:40:07;;;;;;;14.40;11.22;;;;;;;8.12;52.14;101927.02;1759102;80;21081;-52
2022/02/25 03:42:34;;;;;;;14.23;10.48;;;;;;;8.13;52.00;101925.30;1778736;80;21040;-52
2022/02/25 03:45:01;;;;;;;13.10;11.12;;;;;;;8.12;52.03;101923.13;1752862;80;21081;-53
2022/02/25 03:47:27;;;;;;;12.68;10.25;;;;;;;8.12;51.87;101920.96;1753297;81;21018;-55
2022/02/25 03:49:54;;;;;;;13.08;10.65;;;;;;;8.08;51.95;101923.97;1757453;80;21030;-52
2022/02/25 03:52:20;;;;;;;13.32;10.98;;;;;;;8.05;51.98;101925.27;1753346;80;20954;-52
2022/02/25 03:54:46;;;;;;;13.43;10.53;;;;;;;8.02;51.77;101917.45;1755806;80;20998;-53
2022/02/25 03:57:13;;;;;;;15.83;11.28;;;;;;;7.99;51.76;101923.92;1761558;80;21017;-53
2022/02/25 03:59:40;;;;;;;12.50;10.25;;;;;;;7.97;51.78;101918.28;1757868;80;21013;-53
2022/02/25 04:02:07;;;;;;;13.93;11.10;;;;;;;7.92;51.68;101911.77;1756038;80;21042;-52
2022/02/25 04:04:34;;;;;;;14.05;10.72;;;;;;;7.92;51.70;101909.59;1759345;81;21051;-54
2022/02/25 04:07:00;;;;;;;12.98;10.32;;;;;;;7.90;51.73;101906.12;1758865;80;21070;-51
2022/02/25 04:09:28;;;;;;;11.75;9.73;;;;;;;7.89;51.74;101904.41;1759956;80;21098;-52
2022/02/25 04:11:55;;;;;;;13.32;10.32;;;;;;;7.87;51.87;101896.59;1742593;80;21002;-52
2022/02/25 04:14:22;;;;;;;11.28;9.70;;;;;;;7.87;51.77;101895.30;1776456;80;20998;-52
2022/02/25 04:16:50;;;;;;;14.00;10.30;;;;;;;7.88;51.60;101891.87;1770264;80;21600;-52
2022/02/25 04:19:17;;;;;;;14.00;10.28;;;;;;;7.86;51.54;101890.98;1755952;80;21038;-52
2022/02/25 04:21:45;;;;;;;15.40;11.35;;;;;;;7.82;51.51;101890.53;1751427;80;21073;-52
2022/02/25 04:24:11;;;;;;;13.18;10.80;;;;;;;7.79;51.25;101886.60;1758873;80;21026;-52
2022/02/25 04:26:38;;;;;;;14.13;10.70;;;;;;;7.79;51.80;101895.67;1761060;80;21136;-53
2022/02/25 04:29:06;;;;;;;13.28;11.28;;;;;;;7.81;52.19;101895.70;1770445;80;21564;-53
2022/02/25 04:31:33;;;;;;;14.25;11.22;;;;;;;7.79;52.48;101894.83;1764100;80;21682;-52
2022/02/25 04:34:00;;;;;;;16.87;12.18;;;;;;;7.79;52.47;101894.83;1750321;80;21056;-52
2022/02/25 04:36:26;;;;;;;15.68;11.75;;;;;;;7.75;52.49;101891.33;1764094;80;21034;-52
2022/02/25 04:38:53;;;;;;;15.18;11.85;;;;;;;7.74;52.55;101892.20;1768810;80;21034;-52
2022/02/25 04:41:21;;;;;;;19.75;11.65;;;;;;;7.72;52.50;101890.02;1763326;80;21059;-52
2022/02/25 04:43:48;;;;;;;13.88;10.82;;;;;;;7.71;52.50;101889.56;1753676;80;21045;-52
2022/02/25 04:46:17;;;;;;;14.90;12.18;;;;;;;7.71;52.53;101883.51;1769677;80;21031;-52
2022/02/25 04:48:43;;;;;;;16.35;12.28;;;;;;;7.69;52.44;101882.21;1767451;80;21018;-52
2022/02/25 04:51:12;;;;;;;14.55;11.57;;;;;;;7.68;52.57;101889.56;1762583;80;21069;-52
2022/02/25 04:53:38;;;;;;;16.67;11.90;;;;;;;7.66;52.74;101889.98;1756611;80;21529;-52
2022/02/25 04:56:05;;;;;;;15.85;12.20;;;;;;;7.66;52.77;101892.98;1758560;80;21438;-53
2022/02/25 04:58:33;;;;;;;13.80;11.30;;;;;;;7.65;52.94;101890.81;1764313;80;21557;-54
2022/02/25 05:01:01;;;;;;;13.32;11.70;;;;;;;7.67;53.00;101886.52;1752067;80;21112;-52
2022/02/25 05:03:28;;;;;;;16.75;11.68;;;;;;;7.65;53.00;101884.34;1763382;80;21019;-53
2022/02/25 05:05:54;;;;;;;16.25;11.33;;;;;;;7.62;53.25;101881.74;1759283;80;21073;-53
2022/02/25 05:08:21;;;;;;;17.73;12.18;;;;;;;7.62;53.51;101881.74;1751111;81;21560;-53
2022/02/25 05:10:48;;;;;;;14.85;11.33;;;;;;;7.63;53.63;101883.45;1752899;80;21073;-53
2022/02/25 05:13:15;;;;;;;13.78;11.43;;;;;;;7.63;53.52;101869.21;1739813;81;21015;-53
2022/02/25 05:21:12;;;;;;;15.43;11.83;;;;;;;7.59;54.37;101872.63;1735458;80;21056;-53
2022/02/25 05:23:39;;;;;;;13.85;11.55;;;;;;;7.58;54.40;101872.21;1740544;81;21485;-52
2022/02/25 05:26:05;;;;;;;15.38;12.05;;;;;;;7.59;54.74;101871.34;1756504;80;20998;-52
2022/02/25 05:28:32;;;;;;;19.20;15.50;;;;;;;7.59;54.82;101857.09;1756401;80;21533;-52
2022/02/25 05:30:58;;;;;;;15.40;13.03;;;;;;;7.56;54.83;101858.38;1756893;80;20998;-53
2022/02/25 05:33:25;;;;;;;13.65;11.78;;;;;;;7.55;54.95;101854.04;1767499;80;21003;-53
2022/02/25 05:35:52;;;;;;;16.15;12.25;;;;;;;7.50;55.41;101858.30;1769767;80;21026;-53
2022/02/25 05:38:19;;;;;;;14.90;11.83;;;;;;;7.47;55.91;101854.83;1762744;80;21033;-52
2022/02/25 05:40:46;;;;;;;15.15;11.83;;;;;;;7.44;56.11;101870.36;1774996;80;21007;-53
2022/02/25 05:43:13;;;;;;;14.03;11.57;;;;;;;7.42;56.42;101872.91;1760802;80;21035;-53
2022/02/25 05:45:40;;;;;;;15.00;11.78;;;;;;;7.43;56.44;101877.67;1757868;80;20995;-53
2022/02/25 05:48:08;;;;;;;16.12;12.55;;;;;;;7.43;56.34;101882.43;1752075;81;21510;-53
2022/02/25 05:50:34;;;;;;;14.78;11.80;;;;;;;7.40;56.28;101876.79;1764498;80;21026;-53
2022/02/25 05:53:01;;;;;;;15.32;11.93;;;;;;;7.43;56.07;101879.84;1757788;80;21051;-53
2022/02/25 05:55:28;;;;;;;17.87;13.03;;;;;;;7.46;55.96;101881.59;1762155;80;21023;-53
2022/02/25 05:57:55;;;;;;;14.30;12.40;;;;;;;7.49;55.57;101881.19;1750835;80;21022;-53
2022/02/25 06:00:22;;;;;;;19.45;13.13;;;;;;;7.49;55.43;101892.84;1756206;80;20975;-53
2022/02/25 06:02:50;;;;;;;15.30;12.18;;;;;;;7.49;55.31;101886.78;1765346;80;21006;-52
2022/02/25 06:05:17;;;;;;;18.42;13.98;;;;;;;7.49;55.30;101887.66;1753920;80;21053;-52
2022/02/25 06:07:43;;;;;;;19.02;12.50;;;;;;;7.50;55.10;101894.56;1766501;80;21497;-53
2022/02/25 06:10:10;;;;;;;14.43;12.73;;;;;;;7.50;54.74;101894.56;1755100;80;21515;-53
2022/02/25 06:12:38;;;;;;;14.28;12.23;;;;;;;7.48;54.68;101898.86;1758934;80;21458;-52
2022/02/25 06:15:07;;;;;;;15.10;12.10;;;;;;;7.48;54.83;101902.74;1770165;80;21018;-52
2022/02/25 06:17:36;;;;;;;14.90;12.00;;;;;;;7.52;54.82;101900.66;1723994;82;21398;-52
2022/02/25 06:20:02;;;;;;;16.70;12.78;;;;;;;7.60;54.72;101907.19;1715174;82;20999;-52
2022/02/25 06:22:31;;;;;;;15.45;10.45;;;;;;;7.71;54.41;101899.92;1711548;82;21062;-52
2022/02/25 06:24:57;;;;;;;13.30;11.40;;;;;;;7.89;54.38;101897.92;1729996;82;21006;-52
2022/02/25 06:27:23;;;;;;;13.35;11.33;;;;;;;8.07;54.48;101887.67;1690320;83;21058;-52
2022/02/25 06:29:50;;;;;;;12.82;10.93;;;;;;;8.24;53.97;101886.06;1758444;80;21088;-52
2022/02/25 06:32:17;;;;;;;14.55;10.78;;;;;;;8.33;53.93;101886.55;1765229;80;21043;-52
2022/02/25 06:34:43;;;;;;;16.37;11.43;;;;;;;8.44;53.55;101887.48;1760301;80;21511;-53
2022/02/25 06:37:10;;;;;;;11.70;10.48;;;;;;;8.52;52.93;101886.67;1761435;80;21539;-52
2022/02/25 06:39:36;;;;;;;13.22;10.65;;;;;;;8.57;53.01;101898.37;1739345;80;21561;-53
2022/02/25 06:42:03;;;;;;;12.88;10.18;;;;;;;8.68;52.80;101895.37;1767569;80;21568;-52
2022/02/25 06:44:30;;;;;;;12.90;10.30;;;;;;;8.78;52.35;101894.54;1749524;80;21026;-53
2022/02/25 06:46:56;;;;;;;13.70;11.03;;;;;;;8.84;52.06;101892.00;1761789;80;21506;-53
2022/02/25 06:49:24;;;;;;;17.45;12.33;;;;;;;8.87;51.86;101894.59;1772263;80;21513;-53
2022/02/25 06:51:50;;;;;;;12.07;10.45;;;;;;;8.91;51.71;101889.41;1756893;80;21081;-52
2022/02/25 06:54:16;;;;;;;12.88;11.05;;;;;;;8.99;51.41;101894.62;1763810;80;21039;-52
2022/02/25 06:56:43;;;;;;;13.72;11.08;;;;;;;8.98;51.27;101885.11;1751777;80;21549;-53
2022/02/25 06:59:09;;;;;;;14.38;11.25;;;;;;;8.92;51.41;101887.69;1754590;80;21041;-52
2022/02/25 07:01:37;;;;;;;11.95;10.65;;;;;;;8.86;51.36;101887.67;1754753;81;21025;-53
2022/02/25 07:04:05;;;;;;;14.55;11.63;;;;;;;8.80;51.43;101888.92;1752224;80;20998;-54
2022/02/25 07:06:33;;;;;;;16.42;12.13;;;;;;;8.73;51.78;101888.06;1773841;80;21100;-53
2022/02/25 07:09:01;;;;;;;13.83;10.63;;;;;;;8.69;52.01;101889.34;1753868;80;21078;-53
2022/02/25 07:11:27;;;;;;;13.25;11.12;;;;;;;8.70;52.15;101887.16;1750825;80;21043;-53
2022/02/25 07:13:55;;;;;;;11.83;10.13;;;;;;;8.74;52.04;101885.02;1755091;81;21014;-53
2022/02/25 07:16:22;;;;;;;12.35;10.58;;;;;;;8.78;52.05;101882.86;1756956;80;20991;-53
2022/02/25 07:18:49;;;;;;;14.98;11.00;;;;;;;8.78;51.97;101886.75;1753202;80;21104;-52
2022/02/25 07:21:15;;;;;;;12.47;10.55;;;;;;;8.79;51.94;101879.42;1763545;80;21045;-53
2022/02/25 07:23:42;;;;;;;12.28;10.98;;;;;;;8.81;51.78;101879.88;1765074;80;21067;-53
2022/02/25 07:26:08;;;;;;;11.57;10.38;;;;;;;8.83;51.36;101870.36;1751694;81;21066;-52
2022/02/25 07:28:35;;;;;;;11.95;10.35;;;;;;;8.83;51.46;101866.89;1759768;80;21057;-52
2022/02/25 07:31:02;;;;;;;13.50;10.68;;;;;;;8.83;51.34;101856.51;1757368;80;21014;-53
2022/02/25 07:33:28;;;;;;;14.18;11.50;;;;;;;8.80;51.54;101853.89;1770684;80;21010;-52
2022/02/25 07:35:56;;;;;;;13.88;11.25;;;;;;;8.78;51.48;101853.02;1752211;80;21092;-53
2022/02/25 07:38:23;;;;;;;15.35;12.35;;;;;;;8.76;51.42;101854.74;1758168;80;21053;-53
2022/02/25 07:40:50;;;;;;;16.65;11.55;;;;;;;8.74;51.39;101859.06;1765995;80;21042;-52
2022/02/25 07:43:19;;;;;;;13.60;11.75;;;;;;;8.72;51.68;101855.59;1752715;81;20979;-53
2022/02/25 07:45:50;;;;;;;14.85;12.10;;;;;;;8.73;51.61;101862.53;1744139;80;21528;-53
2022/02/25 07:48:18;;;;;;;13.68;11.03;;;;;;;8.74;51.70;101856.47;1755429;80;21010;-53
2022/02/25 07:50:45;;;;;;;11.95;10.68;;;;;;;8.74;51.69;101862.95;1757797;80;21061;-53
2022/02/25 07:53:12;;;;;;;13.98;11.75;;;;;;;8.76;51.60;101865.13;1742273;81;21094;-53
2022/02/25 07:55:40;;;;;;;14.13;11.75;;;;;;;8.76;51.62;101862.53;1752134;80;21545;-55
2022/02/25 07:58:06;;;;;;;12.60;11.08;;;;;;;8.77;51.53;101861.26;1751573;80;21042;-52
2022/02/25 08:00:33;;;;;;;12.80;11.03;;;;;;;8.80;51.44;101857.78;1756282;81;21113;-53
2022/02/25 08:03:04;;;;;;;16.20;12.53;;;;;;;8.83;51.27;101845.70;1755281;80;21041;-53
2022/02/25 08:05:32;;;;;;;13.55;11.83;;;;;;;8.87;51.36;101848.73;1756580;80;21069;-52
2022/02/25 08:08:02;;;;;;;16.10;12.43;;;;;;;8.91;51.03;101846.59;1763882;80;22483;-53
2022/02/25 08:10:32;;;;;;;15.53;11.83;;;;;;;8.90;50.88;101849.19;1720282;82;21518;-53
2022/02/25 08:13:03;;;;;;;17.25;13.00;;;;;;;8.86;50.71;101846.16;1652962;86;21102;-52
2022/02/25 08:18:01;;;;;;;15.60;11.40;;;;;;;8.82;50.66;101839.22;1675547;84;21099;-52
2022/02/25 08:20:28;;;;;;;15.85;12.23;;;;;;;8.81;50.47;101842.66;1672639;85;21082;-52
2022/02/25 08:23:00;;;;;;;15.65;11.90;;;;;;;8.81;50.47;101841.36;1674810;84;21094;-53
2022/02/25 08:25:27;;;;;;;13.62;11.53;;;;;;;8.83;50.62;101837.05;1653088;85;21116;-53
2022/02/25 08:27:53;;;;;;;14.00;12.40;;;;;;;8.91;50.74;101836.63;1654968;85;21064;-54
2022/02/25 08:30:20;;;;;;;12.90;11.35;;;;;;;8.99;50.54;101833.61;1649540;85;21064;-52
2022/02/25 08:32:49;;;;;;;14.87;12.15;;;;;;;9.07;50.38;101833.19;1654149;85;21092;-52
2022/02/25 08:35:17;;;;;;;15.32;12.78;;;;;;;9.15;50.33;101828.87;1609066;88;21618;-52
2022/02/25 08:37:45;;;;;;;16.07;12.78;;;;;;;9.21;50.10;101826.28;1652632;85;21097;-52
2022/02/25 08:40:14;;;;;;;16.37;12.80;;;;;;;9.26;50.01;101818.07;1683473;85;21043;-51
2022/02/25 08:42:41;;;;;;;15.30;12.73;;;;;;;9.29;49.97;101814.19;1675611;84;21589;-53
2022/02/25 08:45:10;;;;;;;16.82;13.28;;;;;;;9.32;50.05;101814.17;1649041;87;21117;-52
2022/02/25 08:47:37;;;;;;;16.05;12.28;;;;;;;9.34;50.03;101816.34;1672538;85;21019;-53
2022/02/25 08:50:04;;;;;;;14.93;12.80;;;;;;;9.35;49.95;101811.59;1651877;85;21077;-52
2022/02/25 08:52:31;;;;;;;13.10;11.68;;;;;;;9.40;50.10;101807.24;1672123;84;21147;-52
2022/02/25 08:54:59;;;;;;;16.80;13.58;;;;;;;9.47;49.92;101790.80;1689943;84;21043;-52
2022/02/25 08:57:26;;;;;;;16.87;12.15;;;;;;;9.53;49.80;101786.89;1667633;84;21150;-53
2022/02/25 08:59:52;;;;;;;16.00;12.95;;;;;;;9.61;49.68;101772.58;1663601;85;21024;-51
2022/02/25 09:02:18;;;;;;;12.65;11.18;;;;;;;9.68;49.50;101775.19;1673598;85;21080;-52
2022/02/25 09:04:45;;;;;;;15.35;12.88;;;;;;;9.76;49.37;101774.73;1658518;84;21045;-52
2022/02/25 09:07:14;;;;;;;17.15;12.60;;;;;;;9.83;49.30;101769.94;1684521;83;21966;-53
2022/02/25 09:09:41;;;;;;;14.53;12.55;;;;;;;9.91;49.28;101766.47;1701788;83;21051;-52
2022/02/25 09:12:10;;;;;;;13.28;11.40;;;;;;;9.96;48.98;101768.59;1684179;83;21175;-52
2022/02/25 09:14:36;;;;;;;13.53;11.48;;;;;;;10.00;48.90;101761.22;1685136;84;21030;-53
2022/02/25 09:17:04;;;;;;;13.62;10.90;;;;;;;10.05;48.71;101762.08;1692871;83;21047;-52
2022/02/25 09:19:30;;;;;;;13.32;10.58;;;;;;;10.11;48.88;101759.48;1700769;83;21029;-52
2022/02/25 09:21:57;;;;;;;13.53;9.68;;;;;;;10.19;48.40;101753.81;1688287;83;21086;-52
2022/02/25 09:24:24;;;;;;;14.03;11.18;;;;;;;10.25;48.27;101736.88;1721839;82;21079;-52
2022/02/25 09:26:50;;;;;;;12.82;10.60;;;;;;;10.31;48.38;101736.84;1693397;83;20995;-52
2022/02/25 09:29:17;;;;;;;13.32;10.60;;;;;;;10.38;48.30;101736.83;1685678;84;21036;-52
2022/02/25 09:31:44;;;;;;;13.78;9.85;;;;;;;10.47;48.07;101731.98;1692648;84;21467;-52
2022/02/25 09:34:10;;;;;;;12.35;9.95;;;;;;;10.53;48.00;101735.88;1719679;82;21534;-53
2022/02/25 09:36:36;;;;;;;11.28;10.15;;;;;;;10.57;47.68;101725.41;1693034;84;21074;-52
2022/02/25 09:39:03;;;;;;;10.60;9.03;;;;;;;10.63;47.61;101732.34;1690832;84;21027;-52
2022/02/25 09:41:31;;;;;;;12.10;10.00;;;;;;;10.67;47.41;101728.84;1699979;84;21114;-52
2022/02/25 09:43:57;;;;;;;15.20;9.63;;;;;;;10.71;47.35;101728.37;1697482;84;21007;-53
2022/02/25 09:46:24;;;;;;;11.10;9.40;;;;;;;10.75;47.04;101730.08;1694280;84;21514;-52
2022/02/25 09:48:51;;;;;;;12.85;10.10;;;;;;;10.79;47.11;101725.28;1692992;84;21048;-51
2022/02/25 09:51:17;;;;;;;19.50;9.93;;;;;;;10.84;46.98;101725.66;1696468;84;21031;-51
2022/02/25 09:53:44;;;;;;;12.65;10.15;;;;;;;10.91;47.00;101720.84;1730098;82;21042;-51
2022/02/25 09:56:10;;;;;;;10.72;9.45;;;;;;;10.96;46.76;101719.09;1753636;80;21010;-53
2022/02/25 09:58:37;;;;;;;12.07;9.83;;;;;;;11.02;46.54;101714.26;1758241;80;21030;-51
2022/02/25 10:01:03;;;;;;;12.25;9.55;;;;;;;11.08;46.25;101711.16;1765044;80;20979;-51
2022/02/25 10:03:30;;;;;;;11.75;9.40;;;;;;;11.13;46.59;101704.16;1757307;80;21010;-51
2022/02/25 10:06:08;;;;;;;10.53;8.88;;;;;;;11.18;46.29;101699.78;1757423;80;21096;-51
2022/02/25 10:08:36;;;;;;;11.68;9.08;;;;;;;11.23;45.91;101690.16;1689573;83;21100;-51
2022/02/25 10:11:03;;;;;;;11.38;8.78;;;;;;;11.29;45.70;101686.66;1683145;83;21037;-51
2022/02/25 10:13:31;;;;;;;13.00;8.38;;;;;;;11.33;45.37;101683.14;1685884;83;21153;-51
2022/02/25 10:16:00;;;;;;;9.00;7.70;;;;;;;11.35;45.74;101682.22;1684068;83;21577;-51
2022/02/25 10:18:30;;;;;;;10.25;8.58;;;;;;;11.43;45.50;101684.77;1683675;83;21073;-53
2022/02/25 10:21:11;;;;;;;9.48;8.00;;;;;;;11.51;45.34;101674.25;1694091;84;21030;-51
2022/02/25 10:23:43;;;;;;;10.05;8.00;;;;;;;11.57;45.27;101671.58;1684484;84;21597;-52
2022/02/25 10:26:16;;;;;;;11.53;8.20;;;;;;;11.63;44.64;101657.17;1697357;83;21021;-53
2022/02/25 10:28:46;;;;;;;9.10;7.08;;;;;;;11.70;44.53;101657.56;1684375;84;21583;-53
2022/02/25 10:31:32;;;;;;;11.60;7.92;;;;;;;11.76;44.12;101662.70;1689009;83;21002;-53
2022/02/25 10:34:06;;;;;;;10.00;7.75;;;;;;;11.80;43.89;101654.83;1689444;84;21089;-53
2022/02/25 10:36:46;;;;;;;8.88;7.47;;;;;;;11.88;43.41;101650.81;1695229;84;21113;-52
2022/02/25 10:39:24;;;;;;;8.15;7.25;;;;;;;11.92;43.02;101653.80;1675403;83;21522;-52
2022/02/25 10:42:16;;;;;;;10.68;8.45;;;;;;;11.96;42.85;101652.88;1691129;84;21069;-52
2022/02/25 10:44:57;;;;;;;8.18;6.80;;;;;;;12.01;42.84;101644.09;1693189;83;21005;-52
2022/02/25 10:47:30;;;;;;;8.23;6.53;;;;;;;12.11;42.17;101642.25;1682993;83;21161;-52
2022/02/25 10:50:12;;;;;;;14.28;6.47;;;;;;;12.16;41.71;101628.67;1687435;83;21011;-52
2022/02/25 10:52:44;;;;;;;6.67;5.97;;;;;;;12.21;41.26;101629.05;1701313;84;21073;-52
2022/02/25 10:55:20;;;;;;;7.85;6.08;;;;;;;12.28;40.97;101623.30;1696649;83;21096;-52
2022/02/25 10:57:49;;;;;;;7.40;5.47;;;;;;;12.32;40.69;101615.85;1698511;83;20987;-52
2022/02/25 11:00:17;;;;;;;6.80;5.83;;;;;;;12.35;40.81;101611.88;1688888;84;21063;-52
2022/02/25 11:07:53;;;;;;;7.05;5.10;;;;;;;12.51;40.65;101601.60;1624243;86;21117;-52
2022/02/25 11:10:23;;;;;;;9.68;5.80;;;;;;;12.57;40.48;101597.58;1601423;88;21060;-52
2022/02/25 11:12:51;;;;;;;7.12;5.22;;;;;;;12.64;39.89;101601.83;1596275;88;21059;-52
2022/02/25 11:15:23;;;;;;;6.78;5.62;;;;;;;12.69;39.42;101601.32;1615095;88;21107;-52
2022/02/25 11:17:49;;;;;;;6.87;5.33;;;;;;;12.70;39.33;101589.97;1597621;88;21092;-52
2022/02/25 11:20:23;;;;;;;5.92;4.97;;;;;;;12.74;39.58;101589.03;1600214;88;21111;-52
2022/02/25 11:22:54;;;;;;;7.10;5.37;;;;;;;12.79;38.88;101583.73;1581159;89;21078;-52
2022/02/25 11:25:20;;;;;;;6.73;5.57;;;;;;;12.83;39.04;101585.41;1585636;89;21085;-54
2022/02/25 11:27:47;;;;;;;7.05;5.47;;;;;;;12.87;38.90;101579.23;1583485;89;21252;-51
2022/02/25 11:30:36;;;;;;;8.03;5.28;;;;;;;12.92;38.83;101578.25;1581996;89;21073;-53
2022/02/25 11:33:15;;;;;;;7.30;5.47;;;;;;;12.98;39.09;101584.66;1528754;92;21638;-51
2022/02/25 11:35:54;;;;;;;5.92;4.85;;;;;;;13.01;39.12;101571.56;1533962;91;21631;-52
2022/02/25 11:38:40;;;;;;;6.50;5.12;;;;;;;13.08;39.40;101570.17;1529263;92;21147;-52